Kingston Norman Rogers Airport
CYGK : now visible

Airfield :











YOU CAN JOIN US ON...

 
LOGIN :

Register | Disclaimer

   EN    FR    IT 

 









Legend :    VFR   Marginal VFR   IFR   Intensive IFR   Very Intensive IFR
Visi :
Ceiling :
>= 8 km
>= 3000ft
5 to 8 km
1000 to 3000 ft
1500m to 5 km
500 to 1000 ft
800 to 1500m
200 to 500 ft
< 800m
< 200 ft
Symbols :   Thunderstorms  Fog  Heavy snow  Heavy precipitations  Wind > 20 kt






- Airport Elevation : 305 ft
- IATA code : YGK


CYGK - Kingston Norman Rogers

CURRENT METAR :
  • 221300Z 31013KT 15SM BKN017 06/02 A2992 RMK SC7 SLP134

EXPIRED METARs :
  • 221212Z 29009G15KT 15SM OVC013 06/04 A2988 RMK SC8 PRESRR SLP123
  • 221200Z 33010KT 15SM OVC015 06/04 A2987 RMK SC8 SLP118
  • 221132Z 32009G15KT 15SM BKN016 OVC040 07/04 A2985 RMK SC6SC2 SLP112
  • 221100Z 33006KT 15SM BKN014 OVC038 08/06 A2982 RMK SC6SC2 SLP101

TAF TAF CYGK
Valid from the 22 at 12:00 until the 23 at 00:00 UTC


221138Z 2212/2224 32010KT P6SM BKN015 OVC030
TEMPO 2212/2216 SCT015 BKN030
FM221600 31007KT P6SM BKN025
TEMPO 2216/2218 BKN020
FM222000 27005KT P6SM SCT030
TEMPO 2220/2224 BKN030 RMK NXT FCST BY 221400Z
CZYZ FIR / North America



MET'MAP, your aeronautical weather chart ! - Copyright ORBIFLY December 2007 - Disclaimer

ORBIFLY MET'MAP TEAM :

Programming & Development : Alexandra Zaïnal
Concept & original design : Baudouin d'Aumeries
Assistance for programming : Marc-Olivier Méhu
Technical & hardware support : Manuel Goepfert

Contact : metmap@orbifly.com




SOURCES & CREDITS :

   NOAA       Earth
Advisory